sensor_id;sensor_type;location;lat;lon;timestamp;pressure;altitude;pressure_sealevel;temperature;humidity
20455;BME280;10386;54.314;10.022;2023-02-14T00:01:08;103810.81;;;6.15;100.00
20455;BME280;10386;54.314;10.022;2023-02-14T00:03:36;103811.75;;;6.13;100.00
20455;BME280;10386;54.314;10.022;2023-02-14T00:06:07;103804.56;;;6.07;100.00
20455;BME280;10386;54.314;10.022;2023-02-14T00:08:34;103803.69;;;6.08;100.00
20455;BME280;10386;54.314;10.022;2023-02-14T00:11:03;103798.25;;;6.16;100.00
20455;BME280;10386;54.314;10.022;2023-02-14T00:13:31;103803.63;;;6.14;100.00
20455;BME280;10386;54.314;10.022;2023-02-14T00:15:58;103802.72;;;6.15;100.00
20455;BME280;10386;54.314;10.022;2023-02-14T00:18:25;103805.53;;;6.02;100.00
20455;BME280;10386;54.314;10.022;2023-02-14T00:21:12;103801.94;;;5.98;100.00
20455;BME280;10386;54.314;10.022;2023-02-14T00:23:38;103793.84;;;5.94;100.00
20455;BME280;10386;54.314;10.022;2023-02-14T00:26:12;103800.16;;;5.94;100.00
20455;BME280;10386;54.314;10.022;2023-02-14T00:28:39;103799.22;;;6.06;100.00
20455;BME280;10386;54.314;10.022;2023-02-14T00:31:06;103793.78;;;6.09;100.00
20455;BME280;10386;54.314;10.022;2023-02-14T00:33:32;103796.56;;;6.00;100.00
20455;BME280;10386;54.314;10.022;2023-02-14T00:36:04;103796.53;;;6.03;100.00
20455;BME280;10386;54.314;10.022;2023-02-14T00:38:33;103805.50;;;6.08;100.00
20455;BME280;10386;54.314;10.022;2023-02-14T00:41:00;103797.47;;;5.94;100.00
20455;BME280;10386;54.314;10.022;2023-02-14T00:43:28;103796.59;;;5.86;100.00
20455;BME280;10386;54.314;10.022;2023-02-14T00:45:55;103801.97;;;5.97;100.00
20455;BME280;10386;54.314;10.022;2023-02-14T00:48:22;103800.09;;;6.03;100.00
20455;BME280;10386;54.314;10.022;2023-02-14T00:50:49;103795.59;;;6.08;100.00
20455;BME280;10386;54.314;10.022;2023-02-14T00:53:15;103799.22;;;6.06;100.00
20455;BME280;10386;54.314;10.022;2023-02-14T00:55:44;103798.34;;;5.99;100.00
20455;BME280;10386;54.314;10.022;2023-02-14T00:58:12;103795.66;;;6.01;100.00
20455;BME280;10386;54.314;10.022;2023-02-14T01:00:38;103791.13;;;6.04;100.00
20455;BME280;10386;54.314;10.022;2023-02-14T01:03:05;103790.25;;;6.01;100.00
20455;BME280;10386;54.314;10.022;2023-02-14T01:05:32;103778.59;;;5.91;100.00
20455;BME280;10386;54.314;10.022;2023-02-14T01:07:59;103786.69;;;5.90;100.00
20455;BME280;10386;54.314;10.022;2023-02-14T01:10:26;103777.69;;;5.92;100.00
20455;BME280;10386;54.314;10.022;2023-02-14T01:12:53;103775.00;;;5.95;100.00
20455;BME280;10386;54.314;10.022;2023-02-14T01:15:19;103780.38;;;5.98;100.00
20455;BME280;10386;54.314;10.022;2023-02-14T01:17:46;103783.06;;;5.98;100.00
20455;BME280;10386;54.314;10.022;2023-02-14T01:20:13;103779.53;;;5.87;100.00
20455;BME280;10386;54.314;10.022;2023-02-14T01:22:40;103775.94;;;5.85;100.00
20455;BME280;10386;54.314;10.022;2023-02-14T01:25:07;103780.41;;;5.85;100.00
20455;BME280;10386;54.314;10.022;2023-02-14T01:27:35;103779.53;;;5.86;100.00
20455;BME280;10386;54.314;10.022;2023-02-14T01:30:03;103783.16;;;5.80;100.00
20455;BME280;10386;54.314;10.022;2023-02-14T01:32:32;103784.94;;;5.84;100.00
20455;BME280;10386;54.314;10.022;2023-02-14T01:35:01;103780.41;;;5.85;100.00
20455;BME280;10386;54.314;10.022;2023-02-14T01:37:29;103780.38;;;5.91;100.00
20455;BME280;10386;54.314;10.022;2023-02-14T01:39:56;103775.06;;;5.77;100.00
20455;BME280;10386;54.314;10.022;2023-02-14T01:42:24;103772.28;;;6.00;100.00
20455;BME280;10386;54.314;10.022;2023-02-14T01:45:04;103766.94;;;5.85;100.00
20455;BME280;10386;54.314;10.022;2023-02-14T01:47:36;103764.22;;;5.92;100.00
20455;BME280;10386;54.314;10.022;2023-02-14T01:50:29;103763.16;;;6.19;100.00
20455;BME280;10386;54.314;10.022;2023-02-14T01:53:01;103747.97;;;6.04;100.00
20455;BME280;10386;54.314;10.022;2023-02-14T01:55:33;103739.00;;;6.02;100.00
20455;BME280;10386;54.314;10.022;2023-02-14T01:58:09;103742.59;;;5.98;100.00
20455;BME280;10386;54.314;10.022;2023-02-14T02:00:38;103737.19;;;6.01;100.00
20455;BME280;10386;54.314;10.022;2023-02-14T02:03:28;103730.94;;;6.01;100.00
20455;BME280;10386;54.314;10.022;2023-02-14T02:06:26;103735.44;;;5.99;100.00
20455;BME280;10386;54.314;10.022;2023-02-14T02:11:46;103733.69;;;5.86;100.00
20455;BME280;10386;54.314;10.022;2023-02-14T02:14:17;103727.44;;;5.81;100.00
20455;BME280;10386;54.314;10.022;2023-02-14T02:17:19;103737.31;;;5.76;100.00
20455;BME280;10386;54.314;10.022;2023-02-14T02:37:37;103728.38;;;5.68;100.00
20455;BME280;10386;54.314;10.022;2023-02-14T02:53:14;103714.94;;;5.59;100.00
20455;BME280;10386;54.314;10.022;2023-02-14T02:58:29;103707.66;;;5.73;100.00
20455;BME280;10386;54.314;10.022;2023-02-14T03:01:00;103711.38;;;5.58;100.00
20455;BME280;10386;54.314;10.022;2023-02-14T03:03:30;103714.06;;;5.58;100.00
20455;BME280;10386;54.314;10.022;2023-02-14T03:06:18;103714.94;;;5.59;100.00
20455;BME280;10386;54.314;10.022;2023-02-14T03:08:46;103722.13;;;5.64;100.00
20455;BME280;10386;54.314;10.022;2023-02-14T03:11:16;103712.25;;;5.60;100.00
20455;BME280;10386;54.314;10.022;2023-02-14T03:19:20;103720.38;;;5.50;100.00
20455;BME280;10386;54.314;10.022;2023-02-14T03:22:33;103725.75;;;5.53;100.00
20455;BME280;10386;54.314;10.022;2023-02-14T03:25:17;103719.44;;;5.57;100.00
20455;BME280;10386;54.314;10.022;2023-02-14T03:28:17;103718.50;;;5.64;100.00
20455;BME280;10386;54.314;10.022;2023-02-14T03:30:58;103716.72;;;5.63;100.00
20455;BME280;10386;54.314;10.022;2023-02-14T03:42:31;103705.00;;;5.71;100.00
20455;BME280;10386;54.314;10.022;2023-02-14T03:45:03;103716.69;;;5.66;100.00
20455;BME280;10386;54.314;10.022;2023-02-14T03:47:34;103714.97;;;5.54;100.00
20455;BME280;10386;54.314;10.022;2023-02-14T03:50:08;103718.56;;;5.55;100.00
20455;BME280;10386;54.314;10.022;2023-02-14T03:52:37;103720.25;;;5.71;100.00
20455;BME280;10386;54.314;10.022;2023-02-14T03:55:07;103717.63;;;5.59;100.00
20455;BME280;10386;54.314;10.022;2023-02-14T03:57:49;103716.84;;;5.36;100.00
20455;BME280;10386;54.314;10.022;2023-02-14T04:00:18;103716.00;;;5.28;100.00
20455;BME280;10386;54.314;10.022;2023-02-14T04:02:48;103722.25;;;5.33;100.00
20455;BME280;10386;54.314;10.022;2023-02-14T04:05:19;103715.09;;;5.22;100.00
20455;BME280;10386;54.314;10.022;2023-02-14T04:07:50;103722.31;;;5.21;100.00
20455;BME280;10386;54.314;10.022;2023-02-14T04:10:18;103723.19;;;5.23;100.00
20455;BME280;10386;54.314;10.022;2023-02-14T04:12:45;103729.44;;;5.28;100.00
20455;BME280;10386;54.314;10.022;2023-02-14T04:15:13;103724.97;;;5.26;100.00
20455;BME280;10386;54.314;10.022;2023-02-14T04:17:43;103723.19;;;5.20;100.00
20455;BME280;10386;54.314;10.022;2023-02-14T04:20:29;103736.63;;;5.29;100.00
20455;BME280;10386;54.314;10.022;2023-02-14T04:22:56;103736.69;;;5.17;100.00
20455;BME280;10386;54.314;10.022;2023-02-14T04:25:23;103728.56;;;5.22;100.00
20455;BME280;10386;54.314;10.022;2023-02-14T04:27:49;103731.28;;;5.13;100.00
20455;BME280;10386;54.314;10.022;2023-02-14T04:30:17;103730.38;;;5.20;100.00
20455;BME280;10386;54.314;10.022;2023-02-14T04:32:43;103727.69;;;5.18;100.00
20455;BME280;10386;54.314;10.022;2023-02-14T04:35:10;103731.31;;;5.10;100.00
20455;BME280;10386;54.314;10.022;2023-02-14T04:37:37;103733.97;;;5.13;100.00
20455;BME280;10386;54.314;10.022;2023-02-14T04:40:05;103732.19;;;5.15;100.00
20455;BME280;10386;54.314;10.022;2023-02-14T04:42:32;103722.31;;;5.18;100.00
20455;BME280;10386;54.314;10.022;2023-02-14T04:44:59;103721.41;;;5.15;100.00
20455;BME280;10386;54.314;10.022;2023-02-14T04:47:29;103723.16;;;5.25;100.00
20455;BME280;10386;54.314;10.022;2023-02-14T04:49:56;103721.38;;;5.21;100.00
20455;BME280;10386;54.314;10.022;2023-02-14T04:52:23;103712.44;;;5.05;100.00
20455;BME280;10386;54.314;10.022;2023-02-14T04:54:49;103721.47;;;4.94;100.00
20455;BME280;10386;54.314;10.022;2023-02-14T04:57:16;103722.31;;;5.06;100.00
20455;BME280;10386;54.314;10.022;2023-02-14T04:59:43;103714.28;;;4.94;100.00
20455;BME280;10386;54.314;10.022;2023-02-14T05:02:10;103715.19;;;4.90;100.00
20455;BME280;10386;54.314;10.022;2023-02-14T05:04:37;103712.50;;;4.92;100.00
20455;BME280;10386;54.314;10.022;2023-02-14T05:07:04;103709.81;;;4.86;100.00
20455;BME280;10386;54.314;10.022;2023-02-14T05:09:31;103715.19;;;4.89;100.00
20455;BME280;10386;54.314;10.022;2023-02-14T05:11:58;103716.06;;;5.00;100.00
20455;BME280;10386;54.314;10.022;2023-02-14T05:14:25;103720.56;;;4.90;100.00
20455;BME280;10386;54.314;10.022;2023-02-14T05:16:52;103725.00;;;5.17;100.00
20455;BME280;10386;54.314;10.022;2023-02-14T05:19:18;103720.50;;;5.08;100.00
20455;BME280;10386;54.314;10.022;2023-02-14T05:21:45;103727.69;;;5.06;100.00
20455;BME280;10386;54.314;10.022;2023-02-14T05:24:12;103711.53;;;5.09;100.00
20455;BME280;10386;54.314;10.022;2023-02-14T05:26:39;103708.91;;;4.93;100.00
20455;BME280;10386;54.314;10.022;2023-02-14T05:29:06;103715.16;;;4.99;100.00
20455;BME280;10386;54.314;10.022;2023-02-14T05:31:33;103719.63;;;5.03;100.00
20455;BME280;10386;54.314;10.022;2023-02-14T05:34:00;103713.41;;;4.89;100.00
20455;BME280;10386;54.314;10.022;2023-02-14T05:36:27;103712.53;;;4.80;100.00
20455;BME280;10386;54.314;10.022;2023-02-14T05:38:54;103717.00;;;4.82;100.00
20455;BME280;10386;54.314;10.022;2023-02-14T05:41:22;103717.91;;;4.81;100.00
20455;BME280;10386;54.314;10.022;2023-02-14T05:43:49;103716.09;;;4.80;100.00
20455;BME280;10386;54.314;10.022;2023-02-14T05:46:16;103708.03;;;4.80;100.00
20455;BME280;10386;54.314;10.022;2023-02-14T05:48:44;103704.47;;;4.77;100.00
20455;BME280;10386;54.314;10.022;2023-02-14T05:51:12;103716.13;;;4.73;100.00
20455;BME280;10386;54.314;10.022;2023-02-14T05:53:39;103720.63;;;4.74;100.00
20455;BME280;10386;54.314;10.022;2023-02-14T05:56:06;103723.28;;;4.78;100.00
20455;BME280;10386;54.314;10.022;2023-02-14T05:58:33;103722.38;;;4.76;100.00
20455;BME280;10386;54.314;10.022;2023-02-14T06:01:00;103727.78;;;4.81;100.00
20455;BME280;10386;54.314;10.022;2023-02-14T06:03:27;103732.22;;;4.98;100.00
20455;BME280;10386;54.314;10.022;2023-02-14T06:05:54;103736.69;;;5.07;100.00
20455;BME280;10386;54.314;10.022;2023-02-14T06:08:21;103735.81;;;4.99;100.00
20455;BME280;10386;54.314;10.022;2023-02-14T06:10:48;103725.97;;;4.87;100.00
20455;BME280;10386;54.314;10.022;2023-02-14T06:13:14;103730.47;;;4.81;100.00
20455;BME280;10386;54.314;10.022;2023-02-14T06:15:41;103738.53;;;4.82;100.00
20455;BME280;10386;54.314;10.022;2023-02-14T06:18:08;103740.31;;;4.80;100.00
20455;BME280;10386;54.314;10.022;2023-02-14T06:20:35;103743.94;;;4.81;100.00
20455;BME280;10386;54.314;10.022;2023-02-14T06:23:02;103747.53;;;4.80;100.00
20455;BME280;10386;54.314;10.022;2023-02-14T06:25:29;103738.56;;;4.78;100.00
20455;BME280;10386;54.314;10.022;2023-02-14T06:27:57;103741.25;;;4.81;100.00
20455;BME280;10386;54.314;10.022;2023-02-14T06:30:24;103750.19;;;4.75;100.00
20455;BME280;10386;54.314;10.022;2023-02-14T06:32:51;103743.88;;;5.08;100.00
20455;BME280;10386;54.314;10.022;2023-02-14T06:35:20;103742.09;;;4.95;100.00
20455;BME280;10386;54.314;10.022;2023-02-14T06:37:47;103745.69;;;4.86;100.00
20455;BME280;10386;54.314;10.022;2023-02-14T06:40:13;103737.63;;;4.97;100.00
20455;BME280;10386;54.314;10.022;2023-02-14T06:42:40;103734.03;;;4.93;100.00
20455;BME280;10386;54.314;10.022;2023-02-14T06:45:07;103735.81;;;5.05;100.00
20455;BME280;10386;54.314;10.022;2023-02-14T06:47:34;103731.31;;;5.02;100.00
20455;BME280;10386;54.314;10.022;2023-02-14T06:50:02;103734.03;;;4.93;100.00
20455;BME280;10386;54.314;10.022;2023-02-14T06:52:31;103731.34;;;4.86;100.00
20455;BME280;10386;54.314;10.022;2023-02-14T06:54:58;103735.84;;;4.84;100.00
20455;BME280;10386;54.314;10.022;2023-02-14T06:57:25;103736.75;;;4.83;100.00
20455;BME280;10386;54.314;10.022;2023-02-14T06:59:52;103739.44;;;4.86;100.00
20455;BME280;10386;54.314;10.022;2023-02-14T07:02:19;103730.38;;;5.21;100.00
20455;BME280;10386;54.314;10.022;2023-02-14T07:04:49;103731.25;;;5.29;100.00
20455;BME280;10386;54.314;10.022;2023-02-14T07:07:16;103727.69;;;5.24;100.00
20455;BME280;10386;54.314;10.022;2023-02-14T07:09:43;103726.81;;;5.10;100.00
20455;BME280;10386;54.314;10.022;2023-02-14T07:12:10;103729.53;;;4.95;100.00
20455;BME280;10386;54.314;10.022;2023-02-14T07:14:37;103714.25;;;5.03;100.00
20455;BME280;10386;54.314;10.022;2023-02-14T07:17:03;103722.38;;;4.93;100.00
20455;BME280;10386;54.314;10.022;2023-02-14T07:19:30;103728.59;;;5.08;100.00
20455;BME280;10386;54.314;10.022;2023-02-14T07:21:57;103717.84;;;5.05;100.00
20455;BME280;10386;54.314;10.022;2023-02-14T07:24:24;103715.16;;;5.01;100.00
20455;BME280;10386;54.314;10.022;2023-02-14T07:26:50;103715.13;;;5.05;100.00
20455;BME280;10386;54.314;10.022;2023-02-14T07:29:17;103717.88;;;5.01;100.00
20455;BME280;10386;54.314;10.022;2023-02-14T07:31:44;103716.94;;;5.15;100.00
20455;BME280;10386;54.314;10.022;2023-02-14T07:34:11;103716.00;;;5.22;100.00
20455;BME280;10386;54.314;10.022;2023-02-14T07:36:38;103716.91;;;5.20;100.00
20455;BME280;10386;54.314;10.022;2023-02-14T07:39:05;103719.53;;;5.35;100.00
20455;BME280;10386;54.314;10.022;2023-02-14T07:41:32;103713.28;;;5.34;100.00
20455;BME280;10386;54.314;10.022;2023-02-14T07:43:58;103708.78;;;5.30;100.00
20455;BME280;10386;54.314;10.022;2023-02-14T07:46:25;103709.69;;;5.32;100.00
20455;BME280;10386;54.314;10.022;2023-02-14T07:48:52;103706.06;;;5.39;100.00
20455;BME280;10386;54.314;10.022;2023-02-14T07:51:19;103706.03;;;5.43;100.00
20455;BME280;10386;54.314;10.022;2023-02-14T07:53:46;103698.78;;;5.56;100.00
20455;BME280;10386;54.314;10.022;2023-02-14T07:56:13;103697.91;;;5.49;100.00
20455;BME280;10386;54.314;10.022;2023-02-14T07:58:40;103698.84;;;5.39;100.00
20455;BME280;10386;54.314;10.022;2023-02-14T08:01:07;103696.16;;;5.47;100.00
20455;BME280;10386;54.314;10.022;2023-02-14T08:03:34;103700.56;;;5.57;100.00
20455;BME280;10386;54.314;10.022;2023-02-14T08:06:01;103697.91;;;5.52;100.00
20455;BME280;10386;54.314;10.022;2023-02-14T08:08:29;103695.25;;;5.48;100.00
20455;BME280;10386;54.314;10.022;2023-02-14T08:10:56;103690.75;;;5.45;100.00
20455;BME280;10386;54.314;10.022;2023-02-14T08:13:24;103694.31;;;5.55;100.00
20455;BME280;10386;54.314;10.022;2023-02-14T08:15:51;103698.81;;;5.53;100.00
20455;BME280;10386;54.314;10.022;2023-02-14T08:18:34;103685.25;;;5.65;100.00
20455;BME280;10386;54.314;10.022;2023-02-14T08:21:01;103687.06;;;5.64;100.00
20455;BME280;10386;54.314;10.022;2023-02-14T08:23:28;103672.72;;;5.61;100.00
20455;BME280;10386;54.314;10.022;2023-02-14T08:25:55;103681.69;;;5.64;100.00
20455;BME280;10386;54.314;10.022;2023-02-14T08:28:22;103680.78;;;5.64;100.00
20455;BME280;10386;54.314;10.022;2023-02-14T08:30:49;103689.66;;;5.85;100.00
20455;BME280;10386;54.314;10.022;2023-02-14T08:33:17;103687.00;;;5.82;100.00
20455;BME280;10386;54.314;10.022;2023-02-14T08:35:44;103692.38;;;5.85;100.00
20455;BME280;10386;54.314;10.022;2023-02-14T08:38:11;103689.69;;;5.81;100.00
20455;BME280;10386;54.314;10.022;2023-02-14T08:40:38;103694.13;;;5.92;100.00
20455;BME280;10386;54.314;10.022;2023-02-14T08:43:05;103697.66;;;6.00;100.00
20455;BME280;10386;54.314;10.022;2023-02-14T08:45:33;103698.47;;;6.13;100.00
20455;BME280;10386;54.314;10.022;2023-02-14T08:48:08;103698.53;;;6.04;100.00
20455;BME280;10386;54.314;10.022;2023-02-14T08:50:36;103700.31;;;6.03;100.00
20455;BME280;10386;54.314;10.022;2023-02-14T08:53:07;103691.31;;;6.09;100.00
20455;BME280;10386;54.314;10.022;2023-02-14T08:55:35;103694.91;;;6.08;100.00
20455;BME280;10386;54.314;10.022;2023-02-14T08:58:02;103702.03;;;6.13;100.00
20455;BME280;10386;54.314;10.022;2023-02-14T09:00:30;103698.53;;;6.07;100.00
20455;BME280;10386;54.314;10.022;2023-02-14T09:02:58;103693.97;;;6.12;100.00
20455;BME280;10386;54.314;10.022;2023-02-14T09:05:25;103687.63;;;6.17;100.00
20455;BME280;10386;54.314;10.022;2023-02-14T09:07:52;103693.03;;;6.19;100.00
20455;BME280;10386;54.314;10.022;2023-02-14T09:10:23;103692.19;;;6.11;100.00
20455;BME280;10386;54.314;10.022;2023-02-14T09:12:50;103699.31;;;6.21;100.00
20455;BME280;10386;54.314;10.022;2023-02-14T09:15:17;103697.47;;;6.24;100.00
20455;BME280;10386;54.314;10.022;2023-02-14T09:17:45;103689.25;;;6.38;100.00
20455;BME280;10386;54.314;10.022;2023-02-14T09:20:13;103698.16;;;6.49;100.00
20455;BME280;10386;54.314;10.022;2023-02-14T09:22:40;103694.56;;;6.50;100.00
20455;BME280;10386;54.314;10.022;2023-02-14T09:25:08;103689.19;;;6.47;100.00
20455;BME280;10386;54.314;10.022;2023-02-14T09:27:35;103686.56;;;6.38;100.00
20455;BME280;10386;54.314;10.022;2023-02-14T09:30:03;103700.66;;;6.70;100.00
20455;BME280;10386;54.314;10.022;2023-02-14T09:32:31;103686.47;;;6.48;100.00
20455;BME280;10386;54.314;10.022;2023-02-14T09:34:58;103679.19;;;6.59;100.00
20455;BME280;10386;54.314;10.022;2023-02-14T09:37:25;103685.31;;;6.72;100.00
20455;BME280;10386;54.314;10.022;2023-02-14T09:39:52;103670.16;;;6.59;100.00
20455;BME280;10386;54.314;10.022;2023-02-14T09:42:44;103674.53;;;6.72;100.00
20455;BME280;10386;54.314;10.022;2023-02-14T09:45:19;103671.88;;;6.69;100.00
20455;BME280;10386;54.314;10.022;2023-02-14T09:47:54;103678.25;;;6.62;100.00
20455;BME280;10386;54.314;10.022;2023-02-14T09:50:27;103676.34;;;6.71;100.00
20455;BME280;10386;54.314;10.022;2023-02-14T09:52:57;103678.16;;;6.72;100.00
20455;BME280;10386;54.314;10.022;2023-02-14T09:55:33;103666.41;;;6.76;100.00
20455;BME280;10386;54.314;10.022;2023-02-14T09:58:14;103666.59;;;6.58;100.00
20455;BME280;10386;54.314;10.022;2023-02-14T10:00:55;103670.03;;;6.71;100.00
20455;BME280;10386;54.314;10.022;2023-02-14T10:03:43;103677.22;;;6.73;100.00
20455;BME280;10386;54.314;10.022;2023-02-14T10:09:36;103656.75;;;6.50;100.00
20455;BME280;10386;54.314;10.022;2023-02-14T10:12:09;103669.94;;;6.81;100.00
20455;BME280;10386;54.314;10.022;2023-02-14T10:14:40;103662.75;;;6.82;100.00
20455;BME280;10386;54.314;10.022;2023-02-14T10:19:43;103661.75;;;6.91;100.00
20455;BME280;10386;54.314;10.022;2023-02-14T10:22:16;103660.75;;;6.98;100.00
20455;BME280;10386;54.314;10.022;2023-02-14T10:25:02;103648.78;;;7.20;100.00
20455;BME280;10386;54.314;10.022;2023-02-14T10:29:58;103649.06;;;6.96;100.00
20455;BME280;10386;54.314;10.022;2023-02-14T10:33:15;103654.41;;;7.01;100.00
20455;BME280;10386;54.314;10.022;2023-02-14T10:43:57;103658.63;;;7.26;100.00
20455;BME280;10386;54.314;10.022;2023-02-14T10:46:29;103648.72;;;7.23;100.00
20455;BME280;10386;54.314;10.022;2023-02-14T10:51:33;103637.00;;;7.26;100.00
20455;BME280;10386;54.314;10.022;2023-02-14T10:54:20;103646.03;;;7.23;100.00
20455;BME280;10386;54.314;10.022;2023-02-14T10:56:57;103641.50;;;7.25;100.00
20455;BME280;10386;54.314;10.022;2023-02-14T10:59:39;103641.56;;;7.18;100.00
20455;BME280;10386;54.314;10.022;2023-02-14T11:02:12;103646.69;;;7.40;100.00
20455;BME280;10386;54.314;10.022;2023-02-14T11:04:39;103644.94;;;7.38;100.00
20455;BME280;10386;54.314;10.022;2023-02-14T11:07:15;103632.44;;;7.31;100.00
20455;BME280;10386;54.314;10.022;2023-02-14T11:09:42;103634.84;;;7.50;100.00
20455;BME280;10386;54.314;10.022;2023-02-14T11:12:09;103623.19;;;7.47;100.00
20455;BME280;10386;54.314;10.022;2023-02-14T11:14:38;103623.97;;;7.53;100.00
20455;BME280;10386;54.314;10.022;2023-02-14T11:17:29;103628.72;;;7.36;100.00
20455;BME280;10386;54.314;10.022;2023-02-14T11:20:02;103626.75;;;7.49;100.00
20455;BME280;10386;54.314;10.022;2023-02-14T11:22:33;103630.13;;;7.64;100.00
20455;BME280;10386;54.314;10.022;2023-02-14T11:25:06;103616.59;;;7.66;100.00
20455;BME280;10386;54.314;10.022;2023-02-14T11:27:34;103613.34;;;7.41;100.00
20455;BME280;10386;54.314;10.022;2023-02-14T11:30:12;103604.31;;;7.44;100.00
20455;BME280;10386;54.314;10.022;2023-02-14T11:32:48;103613.06;;;7.59;100.00
20455;BME280;10386;54.314;10.022;2023-02-14T11:35:23;103605.53;;;7.82;100.00
20455;BME280;10386;54.314;10.022;2023-02-14T11:37:54;103598.47;;;7.71;100.00
20455;BME280;10386;54.314;10.022;2023-02-14T11:40:36;103588.50;;;7.76;100.00
20455;BME280;10386;54.314;10.022;2023-02-14T11:45:41;103594.28;;;8.06;100.00
20455;BME280;10386;54.314;10.022;2023-02-14T11:51:08;103579.34;;;7.83;100.00
20455;BME280;10386;54.314;10.022;2023-02-14T11:56:06;103574.00;;;7.81;100.00
20455;BME280;10386;54.314;10.022;2023-02-14T11:58:34;103574.56;;;8.00;100.00
20455;BME280;10386;54.314;10.022;2023-02-14T12:01:03;103560.16;;;7.98;100.00
20455;BME280;10386;54.314;10.022;2023-02-14T12:03:42;103567.41;;;7.96;100.00
20455;BME280;10386;54.314;10.022;2023-02-14T12:06:11;103566.47;;;7.98;100.00
20455;BME280;10386;54.314;10.022;2023-02-14T12:08:39;103552.84;;;8.03;100.00
20455;BME280;10386;54.314;10.022;2023-02-14T12:13:52;103545.44;;;8.15;100.00
20455;BME280;10386;54.314;10.022;2023-02-14T12:16:25;103532.69;;;8.23;100.00
20455;BME280;10386;54.314;10.022;2023-02-14T12:19:12;103540.41;;;7.94;100.00
20455;BME280;10386;54.314;10.022;2023-02-14T12:21:50;103537.97;;;7.79;100.00
20455;BME280;10386;54.314;10.022;2023-02-14T12:29:40;103552.78;;;8.06;100.00
20455;BME280;10386;54.314;10.022;2023-02-14T12:32:31;103536.06;;;7.84;100.00
20455;BME280;10386;54.314;10.022;2023-02-14T12:35:19;103537.53;;;8.02;100.00
20455;BME280;10386;54.314;10.022;2023-02-14T12:38:05;103521.97;;;8.17;100.00
20455;BME280;10386;54.314;10.022;2023-02-14T12:43:49;103505.28;;;7.91;100.00
20455;BME280;10386;54.314;10.022;2023-02-14T12:52:32;103505.47;;;7.82;100.00
20455;BME280;10386;54.314;10.022;2023-02-14T12:55:28;103511.75;;;7.83;100.00
20455;BME280;10386;54.314;10.022;2023-02-14T12:58:23;103523.03;;;8.07;100.00
20455;BME280;10386;54.314;10.022;2023-02-14T13:06:44;103507.41;;;7.74;100.00
20455;BME280;10386;54.314;10.022;2023-02-14T13:12:09;103516.06;;;7.94;100.00
20455;BME280;10386;54.314;10.022;2023-02-14T13:17:48;103504.31;;;7.95;100.00
20455;BME280;10386;54.314;10.022;2023-02-14T13:20:40;103504.78;;;8.20;100.00
20455;BME280;10386;54.314;10.022;2023-02-14T13:23:26;103495.06;;;8.08;100.00
20455;BME280;10386;54.314;10.022;2023-02-14T13:26:12;103497.53;;;8.22;100.00
20455;BME280;10386;54.314;10.022;2023-02-14T13:29:08;103489.47;;;8.19;100.00
20455;BME280;10386;54.314;10.022;2023-02-14T13:31:40;103472.59;;;8.03;100.00
20455;BME280;10386;54.314;10.022;2023-02-14T13:34:36;103479.69;;;8.10;100.00
20455;BME280;10386;54.314;10.022;2023-02-14T13:37:08;103480.38;;;8.23;100.00
20455;BME280;10386;54.314;10.022;2023-02-14T13:39:45;103457.88;;;8.19;100.00
20455;BME280;10386;54.314;10.022;2023-02-14T13:51:01;103469.03;;;8.01;100.00
20455;BME280;10386;54.314;10.022;2023-02-14T13:53:42;103464.34;;;8.11;100.00
20455;BME280;10386;54.314;10.022;2023-02-14T13:58:54;103469.44;;;8.27;100.00
20455;BME280;10386;54.314;10.022;2023-02-14T14:01:44;103452.59;;;8.12;100.00
20455;BME280;10386;54.314;10.022;2023-02-14T14:07:20;103461.19;;;8.33;100.00
20455;BME280;10386;54.314;10.022;2023-02-14T14:09:53;103449.63;;;8.25;100.00
20455;BME280;10386;54.314;10.022;2023-02-14T14:12:36;103454.66;;;8.43;100.00
20455;BME280;10386;54.314;10.022;2023-02-14T14:15:13;103440.66;;;8.24;100.00
20455;BME280;10386;54.314;10.022;2023-02-14T14:23:30;103442.19;;;8.36;100.00
20455;BME280;10386;54.314;10.022;2023-02-14T14:26:35;103445.00;;;8.31;100.00
20455;BME280;10386;54.314;10.022;2023-02-14T14:29:26;103442.59;;;8.17;100.00
20455;BME280;10386;54.314;10.022;2023-02-14T14:31:55;103444.97;;;8.33;100.00
20455;BME280;10386;54.314;10.022;2023-02-14T14:34:28;103435.91;;;8.35;100.00
20455;BME280;10386;54.314;10.022;2023-02-14T14:37:16;103442.59;;;8.15;100.00
20455;BME280;10386;54.314;10.022;2023-02-14T14:40:31;103434.53;;;8.12;100.00
20455;BME280;10386;54.314;10.022;2023-02-14T14:43:38;103438.22;;;8.10;100.00
20455;BME280;10386;54.314;10.022;2023-02-14T14:46:09;103451.53;;;8.20;100.00
20455;BME280;10386;54.314;10.022;2023-02-14T14:48:39;103452.41;;;8.23;100.00
20455;BME280;10386;54.314;10.022;2023-02-14T14:51:16;103449.91;;;8.10;100.00
20455;BME280;10386;54.314;10.022;2023-02-14T14:53:55;103446.72;;;7.90;100.00
20455;BME280;10386;54.314;10.022;2023-02-14T14:56:25;103447.28;;;8.07;100.00
20455;BME280;10386;54.314;10.022;2023-02-14T14:58:52;103436.31;;;8.13;100.00
20455;BME280;10386;54.314;10.022;2023-02-14T15:01:46;103446.53;;;7.99;100.00
20455;BME280;10386;54.314;10.022;2023-02-14T15:06:45;103445.28;;;8.17;100.00
20455;BME280;10386;54.314;10.022;2023-02-14T15:09:29;103440.25;;;7.97;100.00
20455;BME280;10386;54.314;10.022;2023-02-14T15:12:00;103440.56;;;7.82;100.00
20455;BME280;10386;54.314;10.022;2023-02-14T15:14:49;103450.31;;;7.89;100.00